createdAt,value
2022-09-23T00:01:15.797Z,13.09
2022-09-23T00:03:47.361Z,13.08
2022-09-23T00:06:17.308Z,13.10
2022-09-23T00:08:44.999Z,13.09
2022-09-23T00:11:14.887Z,13.03
2022-09-23T00:13:44.404Z,13.10
2022-09-23T00:16:14.588Z,13.08
2022-09-23T00:18:42.786Z,13.07
2022-09-23T00:21:13.907Z,13.07
2022-09-23T00:23:43.219Z,13.05
2022-09-23T00:26:13.868Z,13.03
2022-09-23T00:28:41.557Z,13.00
2022-09-23T00:31:11.851Z,12.98
2022-09-23T00:33:40.566Z,12.98
2022-09-23T00:36:10.926Z,12.98
2022-09-23T00:38:40.110Z,12.97
2022-09-23T00:41:07.929Z,12.97
2022-09-23T00:43:41.245Z,12.98
2022-09-23T00:46:10.323Z,12.93
2022-09-23T00:48:39.103Z,12.97
2022-09-23T00:51:08.875Z,12.98
2022-09-23T00:53:37.247Z,12.97
2022-09-23T00:56:08.856Z,12.97
2022-09-23T00:58:38.542Z,12.99
2022-09-23T01:01:06.665Z,13.01
2022-09-23T01:03:34.450Z,13.01
2022-09-23T01:06:02.433Z,13.02
2022-09-23T01:08:31.179Z,13.04
2022-09-23T01:11:05.998Z,13.04
2022-09-23T01:13:39.155Z,12.99
2022-09-23T01:16:09.883Z,13.05
2022-09-23T01:18:43.885Z,13.02
2022-09-23T01:21:31.807Z,13.03
2022-09-23T01:24:24.274Z,13.06
2022-09-23T01:27:00.403Z,13.05
2022-09-23T01:29:58.093Z,13.04
2022-09-23T01:32:49.847Z,13.03
2022-09-23T01:35:26.232Z,13.02
2022-09-23T01:38:11.286Z,13.02
2022-09-23T01:40:48.643Z,12.99
2022-09-23T01:43:21.323Z,12.96
2022-09-23T01:45:52.165Z,12.97
2022-09-23T01:48:23.658Z,12.98
2022-09-23T01:50:58.017Z,12.98
2022-09-23T01:53:33.058Z,12.98
2022-09-23T01:56:04.604Z,12.99
2022-09-23T01:58:36.632Z,12.99
2022-09-23T02:01:07.020Z,12.97
2022-09-23T02:03:40.246Z,12.98
2022-09-23T02:06:12.575Z,12.95
2022-09-23T02:08:44.352Z,12.94
2022-09-23T02:11:13.803Z,12.92
2022-09-23T02:13:46.706Z,12.88
2022-09-23T02:16:20.021Z,12.85
2022-09-23T02:18:53.233Z,12.83
2022-09-23T02:21:22.555Z,12.77
2022-09-23T02:23:52.467Z,12.79
2022-09-23T02:26:22.565Z,12.78
2022-09-23T02:28:57.831Z,12.77
2022-09-23T02:31:32.792Z,12.78
2022-09-23T02:34:10.629Z,12.75
2022-09-23T02:36:44.867Z,12.68
2022-09-23T02:39:14.570Z,12.72
2022-09-23T02:41:50.584Z,12.74
2022-09-23T02:44:19.763Z,12.72
2022-09-23T02:46:47.829Z,12.72
2022-09-23T02:49:19.071Z,12.70
2022-09-23T02:51:47.044Z,12.67
2022-09-23T02:54:22.606Z,12.61
2022-09-23T02:56:50.501Z,12.65
2022-09-23T02:59:19.639Z,12.64
2022-09-23T03:02:00.985Z,12.63
2022-09-23T03:04:36.429Z,12.55
2022-09-23T03:07:07.421Z,12.61
2022-09-23T03:09:37.036Z,12.61
2022-09-23T03:12:13.502Z,12.61
2022-09-23T03:14:49.459Z,12.61
2022-09-23T03:17:23.173Z,12.55
2022-09-23T03:19:55.266Z,12.56
2022-09-23T03:22:26.517Z,12.58
2022-09-23T03:24:55.938Z,12.59
2022-09-23T03:27:25.853Z,12.54
2022-09-23T03:29:54.836Z,12.56
2022-09-23T03:32:27.446Z,12.54
2022-09-23T03:34:58.512Z,12.54
2022-09-23T03:37:30.192Z,12.53
2022-09-23T03:40:01.231Z,12.52
2022-09-23T03:42:31.232Z,12.47
2022-09-23T03:44:59.090Z,12.50
2022-09-23T03:47:28.131Z,12.47
2022-09-23T03:49:57.693Z,12.44
2022-09-23T03:52:26.386Z,12.42
2022-09-23T03:54:54.863Z,12.40
2022-09-23T03:57:23.039Z,12.37
2022-09-23T03:59:51.535Z,12.40
2022-09-23T04:02:20.104Z,12.40
2022-09-23T04:04:47.993Z,12.39
2022-09-23T04:07:17.334Z,12.36
2022-09-23T04:09:45.309Z,12.34
2022-09-23T04:12:14.713Z,12.34
2022-09-23T04:14:42.798Z,12.31
2022-09-23T04:17:10.856Z,12.30
2022-09-23T04:19:38.786Z,12.28
2022-09-23T04:22:07.172Z,12.25
2022-09-23T04:24:36.287Z,12.21
2022-09-23T04:27:04.047Z,12.21
2022-09-23T04:29:31.733Z,12.19
2022-09-23T04:31:59.503Z,12.16
2022-09-23T04:34:27.228Z,12.12
2022-09-23T04:36:54.949Z,12.10
2022-09-23T04:39:22.691Z,12.07
2022-09-23T04:41:51.775Z,12.07
2022-09-23T04:44:21.092Z,12.05
2022-09-23T04:46:49.283Z,12.02
2022-09-23T04:49:17.462Z,12.01
2022-09-23T04:51:45.659Z,11.96
2022-09-23T04:54:14.553Z,11.95
2022-09-23T04:56:42.696Z,11.93
2022-09-23T04:59:11.772Z,11.91
2022-09-23T05:01:39.521Z,11.89
2022-09-23T05:04:10.074Z,11.90
2022-09-23T05:06:38.275Z,11.88
2022-09-23T05:09:07.727Z,11.87
2022-09-23T05:11:35.821Z,11.84
2022-09-23T05:14:03.575Z,11.83
2022-09-23T05:16:33.045Z,11.83
2022-09-23T05:19:01.057Z,11.81
2022-09-23T05:21:30.181Z,11.79
2022-09-23T05:24:00.950Z,11.79
2022-09-23T05:26:30.761Z,11.74
2022-09-23T05:28:58.699Z,11.77
2022-09-23T05:31:27.696Z,11.77
2022-09-23T05:33:58.863Z,11.75
2022-09-23T05:36:27.910Z,11.72
2022-09-23T05:38:56.711Z,11.74
2022-09-23T05:41:24.825Z,11.73
2022-09-23T05:43:53.339Z,11.70
2022-09-23T05:46:23.180Z,11.70
2022-09-23T05:48:51.043Z,11.72
2022-09-23T05:51:21.846Z,11.75
2022-09-23T05:53:49.992Z,11.79
2022-09-23T05:56:18.875Z,11.83
2022-09-23T05:58:46.616Z,11.87
2022-09-23T06:01:15.695Z,11.92
2022-09-23T06:03:43.409Z,11.95
2022-09-23T06:06:14.469Z,11.99
2022-09-23T06:08:43.675Z,12.02
2022-09-23T06:11:12.357Z,12.04
2022-09-23T06:13:40.434Z,12.08
2022-09-23T06:16:09.512Z,12.13
2022-09-23T06:18:39.242Z,12.18
2022-09-23T06:21:07.884Z,12.19
2022-09-23T06:23:38.908Z,12.24
2022-09-23T06:26:11.484Z,12.17
2022-09-23T06:28:40.463Z,12.28
2022-09-23T06:31:13.360Z,12.30
2022-09-23T06:33:41.934Z,12.35
2022-09-23T06:36:09.842Z,12.40
2022-09-23T06:38:40.255Z,12.40
2022-09-23T06:41:09.670Z,12.44
2022-09-23T06:43:37.428Z,12.47
2022-09-23T06:46:07.291Z,12.51
2022-09-23T06:48:36.211Z,12.56
2022-09-23T06:51:07.144Z,12.58
2022-09-23T06:53:35.463Z,12.62
2022-09-23T06:56:05.033Z,12.64
2022-09-23T06:58:35.561Z,12.68
2022-09-23T07:01:03.787Z,12.70
2022-09-23T07:03:32.078Z,12.72
2022-09-23T07:06:00.877Z,12.74
2022-09-23T07:08:29.676Z,12.77
2022-09-23T07:10:59.543Z,12.80
2022-09-23T07:13:27.955Z,12.82
2022-09-23T07:15:58.960Z,12.84
2022-09-23T07:18:27.765Z,12.85
2022-09-23T07:20:58.823Z,12.90
2022-09-23T07:23:26.902Z,12.93
2022-09-23T07:25:54.869Z,12.96
2022-09-23T07:28:22.653Z,13.00
2022-09-23T07:30:59.186Z,13.01
2022-09-23T07:33:33.343Z,13.04
2022-09-23T07:36:05.608Z,13.06
2022-09-23T07:38:33.349Z,13.09
2022-09-23T07:41:05.895Z,13.08
2022-09-23T07:43:33.823Z,13.12
2022-09-23T07:46:03.292Z,13.12
2022-09-23T07:48:34.549Z,13.16
2022-09-23T07:51:07.249Z,13.20
2022-09-23T07:53:34.938Z,13.17
2022-09-23T07:56:04.468Z,13.23
2022-09-23T07:58:32.118Z,13.26
2022-09-23T08:01:03.212Z,13.29
2022-09-23T08:03:32.368Z,13.28
2022-09-23T08:06:07.956Z,13.27
2022-09-23T08:08:35.767Z,13.36
2022-09-23T08:11:04.551Z,13.42
2022-09-23T08:13:33.082Z,13.44
2022-09-23T08:16:01.081Z,13.45
2022-09-23T08:18:29.014Z,13.50
2022-09-23T08:20:58.074Z,13.51
2022-09-23T08:23:25.834Z,13.52
2022-09-23T08:25:59.909Z,13.54
2022-09-23T08:28:28.272Z,13.57
2022-09-23T08:30:56.332Z,13.60
2022-09-23T08:33:24.586Z,13.64
2022-09-23T08:35:52.744Z,13.67
2022-09-23T08:38:21.890Z,13.72
2022-09-23T08:40:50.651Z,13.76
2022-09-23T08:43:23.206Z,13.81
2022-09-23T08:45:51.996Z,13.84
2022-09-23T08:48:23.404Z,13.84
2022-09-23T08:50:54.525Z,13.82
2022-09-23T08:53:26.899Z,13.90
2022-09-23T08:55:56.312Z,13.96
2022-09-23T08:58:38.068Z,13.97
2022-09-23T09:01:15.779Z,14.08
2022-09-23T09:03:47.377Z,14.13
2022-09-23T09:06:19.886Z,14.17
2022-09-23T09:08:56.978Z,14.22
2022-09-23T09:11:31.362Z,14.25
2022-09-23T09:14:02.185Z,14.30
2022-09-23T09:17:01.212Z,14.34
2022-09-23T09:19:52.181Z,14.37
2022-09-23T09:22:24.902Z,14.41
2022-09-23T09:24:56.845Z,14.51
2022-09-23T09:27:25.227Z,14.54
2022-09-23T09:29:55.440Z,14.70
2022-09-23T09:32:34.042Z,14.78
2022-09-23T09:35:07.646Z,14.85
2022-09-23T09:37:38.591Z,14.89
2022-09-23T09:40:11.994Z,14.97
2022-09-23T09:42:41.334Z,15.04
2022-09-23T09:45:16.031Z,15.07
2022-09-23T09:47:48.148Z,15.10
2022-09-23T09:50:21.485Z,15.11
2022-09-23T09:52:49.302Z,15.14
2022-09-23T09:55:26.283Z,15.18
2022-09-23T09:57:57.415Z,15.18
2022-09-23T10:00:50.593Z,15.19
2022-09-23T10:03:27.495Z,15.21
2022-09-23T10:05:57.657Z,15.24
2022-09-23T10:08:28.416Z,15.25
2022-09-23T10:11:03.985Z,15.22
2022-09-23T10:13:32.231Z,15.31
2022-09-23T10:16:01.006Z,15.33
2022-09-23T10:18:31.808Z,15.35
2022-09-23T10:21:07.107Z,15.37
2022-09-23T10:23:35.259Z,15.37
2022-09-23T10:26:08.066Z,15.42
2022-09-23T10:28:45.711Z,15.43
2022-09-23T10:31:15.457Z,15.49
2022-09-23T10:33:48.046Z,15.53
2022-09-23T10:36:16.770Z,15.59
2022-09-23T10:38:44.547Z,15.63
2022-09-23T10:41:44.338Z,15.69
2022-09-23T10:44:52.627Z,15.78
2022-09-23T10:47:28.256Z,15.80
2022-09-23T10:50:15.896Z,15.85
2022-09-23T10:52:49.859Z,15.87
2022-09-23T10:55:40.602Z,15.91
2022-09-23T10:58:24.785Z,15.95
2022-09-23T11:01:00.914Z,15.97
2022-09-23T11:03:51.370Z,15.98
2022-09-23T11:06:25.027Z,16.00
2022-09-23T11:09:08.846Z,16.11
2022-09-23T11:11:44.113Z,16.15
2022-09-23T11:14:44.002Z,16.20
2022-09-23T11:17:25.789Z,16.24
2022-09-23T11:20:08.325Z,16.30
2022-09-23T11:22:53.168Z,16.39
2022-09-23T11:25:31.209Z,16.46
2022-09-23T11:28:17.541Z,16.45
2022-09-23T11:30:53.206Z,16.54
2022-09-23T11:33:31.878Z,16.55
2022-09-23T11:36:03.058Z,16.57
2022-09-23T11:38:35.432Z,16.59
2022-09-23T11:41:22.102Z,16.59
2022-09-23T11:43:52.624Z,16.51
2022-09-23T11:46:31.251Z,16.61
2022-09-23T11:49:00.854Z,16.57
2022-09-23T11:51:31.476Z,16.59
2022-09-23T11:54:01.870Z,16.59
2022-09-23T11:56:36.016Z,16.60
2022-09-23T11:59:10.539Z,16.62
2022-09-23T12:01:45.675Z,16.61
2022-09-23T12:04:21.123Z,16.59
2022-09-23T12:06:52.347Z,16.65
2022-09-23T12:09:40.944Z,16.67
2022-09-23T12:12:18.914Z,16.70
2022-09-23T12:14:53.772Z,16.73
2022-09-23T12:17:55.624Z,16.76
2022-09-23T12:20:40.597Z,16.80
2022-09-23T12:23:18.993Z,16.81
2022-09-23T12:25:47.791Z,16.81
2022-09-23T12:28:19.378Z,16.80
2022-09-23T12:30:49.849Z,16.83
2022-09-23T12:33:24.479Z,16.86
2022-09-23T12:35:54.351Z,16.88
2022-09-23T12:38:26.290Z,16.91
2022-09-23T12:40:55.808Z,16.95
2022-09-23T12:43:30.875Z,16.95
2022-09-23T12:46:19.755Z,16.97
2022-09-23T12:49:00.501Z,16.95
2022-09-23T12:51:29.529Z,16.97
2022-09-23T12:54:21.463Z,16.96
2022-09-23T12:57:01.334Z,16.93
2022-09-23T12:59:34.087Z,16.99
2022-09-23T13:02:26.896Z,17.01
2022-09-23T13:05:17.896Z,17.00
2022-09-23T13:07:48.238Z,16.97
2022-09-23T13:10:26.522Z,17.00
2022-09-23T13:12:55.842Z,17.02
2022-09-23T13:15:28.903Z,17.00
2022-09-23T13:18:29.759Z,17.06
2022-09-23T13:20:59.576Z,17.09
2022-09-23T13:23:28.206Z,17.11
2022-09-23T13:25:58.262Z,17.13
2022-09-23T13:28:32.986Z,17.18
2022-09-23T13:31:05.265Z,17.21
2022-09-23T13:33:40.038Z,17.28
2022-09-23T13:36:14.269Z,17.25
2022-09-23T13:38:42.161Z,17.34
2022-09-23T13:41:16.158Z,17.42
2022-09-23T13:43:45.912Z,17.46
2022-09-23T13:46:17.579Z,17.48
2022-09-23T13:48:46.711Z,17.50
2022-09-23T13:51:22.815Z,17.50
2022-09-23T13:53:54.784Z,17.51
2022-09-23T13:56:23.226Z,17.50
2022-09-23T13:58:50.930Z,17.50
2022-09-23T14:01:24.086Z,17.49
2022-09-23T14:03:52.342Z,17.48
2022-09-23T14:06:21.503Z,17.47
2022-09-23T14:08:50.501Z,17.46
2022-09-23T14:11:20.045Z,17.42
2022-09-23T14:13:50.967Z,17.42
2022-09-23T14:16:19.606Z,17.42
2022-09-23T14:18:49.526Z,17.41
2022-09-23T14:21:29.916Z,17.37
2022-09-23T14:23:57.811Z,17.38
2022-09-23T14:26:25.883Z,17.38
2022-09-23T14:28:53.762Z,17.37
2022-09-23T14:31:21.559Z,17.35
2022-09-23T14:33:49.262Z,17.35
2022-09-23T14:36:44.656Z,17.37
2022-09-23T14:39:13.795Z,17.38
2022-09-23T14:41:43.813Z,17.38
2022-09-23T14:44:20.738Z,17.39
2022-09-23T14:46:56.828Z,17.35
2022-09-23T14:49:24.807Z,17.38
2022-09-23T14:51:54.373Z,17.39
2022-09-23T14:54:32.507Z,17.39
2022-09-23T14:57:00.911Z,17.38
2022-09-23T14:59:33.055Z,17.39
2022-09-23T15:02:00.928Z,17.39
2022-09-23T15:04:34.937Z,17.36
2022-09-23T15:07:06.994Z,17.41
2022-09-23T15:09:37.990Z,17.43
2022-09-23T15:12:08.111Z,17.43
2022-09-23T15:14:40.711Z,17.43
2022-09-23T15:17:16.518Z,17.46
2022-09-23T15:19:44.395Z,17.45
2022-09-23T15:22:12.924Z,17.44
2022-09-23T15:24:46.347Z,17.43
2022-09-23T15:27:32.014Z,17.42
2022-09-23T15:30:15.036Z,17.42
2022-09-23T15:32:43.418Z,17.37
2022-09-23T15:35:15.814Z,17.40
2022-09-23T15:37:43.921Z,17.41
2022-09-23T15:40:20.698Z,17.43
2022-09-23T15:42:52.394Z,17.43
2022-09-23T15:45:22.426Z,17.41
2022-09-23T15:47:51.571Z,17.33
2022-09-23T15:50:19.791Z,17.39
2022-09-23T15:52:47.540Z,17.39
2022-09-23T15:55:18.311Z,17.38
2022-09-23T15:57:46.108Z,17.37
2022-09-23T16:00:15.739Z,17.38
2022-09-23T16:02:45.683Z,17.33
2022-09-23T16:05:21.078Z,17.33
2022-09-23T16:07:52.092Z,17.36
2022-09-23T16:10:22.419Z,17.35
2022-09-23T16:12:50.491Z,17.35
2022-09-23T16:15:21.114Z,17.35
2022-09-23T16:17:48.998Z,17.34
2022-09-23T16:20:17.738Z,17.33
2022-09-23T16:22:50.543Z,17.32
2022-09-23T16:25:18.283Z,17.32
2022-09-23T16:27:47.334Z,17.30
2022-09-23T16:30:15.035Z,17.30
2022-09-23T16:32:43.260Z,17.30
2022-09-23T16:35:11.207Z,17.30
2022-09-23T16:37:38.877Z,17.30
2022-09-23T16:40:09.676Z,17.28
2022-09-23T16:42:38.319Z,17.26
2022-09-23T16:45:09.259Z,17.24
2022-09-23T16:47:44.283Z,17.23
2022-09-23T16:50:12.547Z,17.21
2022-09-23T16:52:40.586Z,17.18
2022-09-23T16:55:10.342Z,17.17
2022-09-23T16:57:38.216Z,17.15
2022-09-23T17:00:27.943Z,17.13
2022-09-23T17:03:15.326Z,17.10
2022-09-23T17:05:46.575Z,17.07
2022-09-23T17:08:15.270Z,17.06
2022-09-23T17:10:43.106Z,17.05
2022-09-23T17:13:11.510Z,17.03
2022-09-23T17:15:40.921Z,17.00
2022-09-23T17:18:09.482Z,16.91
2022-09-23T17:20:38.870Z,17.00
2022-09-23T17:23:07.923Z,17.00
2022-09-23T17:25:35.690Z,16.97
2022-09-23T17:28:03.387Z,16.96
2022-09-23T17:30:31.079Z,16.96
2022-09-23T17:33:00.190Z,16.94
2022-09-23T17:35:27.950Z,16.93
2022-09-23T17:37:55.511Z,16.92
2022-09-23T17:40:26.358Z,16.91
2022-09-23T17:42:54.210Z,16.90
2022-09-23T17:45:21.919Z,16.89
2022-09-23T17:47:52.203Z,16.88
2022-09-23T17:50:22.200Z,16.86
2022-09-23T17:52:49.981Z,16.84
2022-09-23T17:55:18.103Z,16.81
2022-09-23T17:57:45.804Z,16.79
2022-09-23T18:00:14.333Z,16.77
2022-09-23T18:02:41.968Z,16.76
2022-09-23T18:05:10.202Z,16.74
2022-09-23T18:07:39.353Z,16.74
2022-09-23T18:10:08.462Z,16.73
2022-09-23T18:12:36.261Z,16.73
2022-09-23T18:15:04.135Z,16.71
2022-09-23T18:17:31.890Z,16.71
2022-09-23T18:19:59.547Z,16.68
2022-09-23T18:22:27.220Z,16.68
2022-09-23T18:24:56.271Z,16.67
2022-09-23T18:27:24.000Z,16.66
2022-09-23T18:29:51.639Z,16.64
2022-09-23T18:32:19.337Z,16.64
2022-09-23T18:34:47.080Z,16.62
2022-09-23T18:37:16.171Z,16.59
2022-09-23T18:39:44.697Z,16.58
2022-09-23T18:42:14.393Z,16.57
2022-09-23T18:44:42.116Z,16.55
2022-09-23T18:47:29.809Z,16.56
2022-09-23T18:50:14.744Z,16.55
2022-09-23T18:52:42.623Z,16.52
2022-09-23T18:55:11.157Z,16.52
2022-09-23T18:57:41.205Z,16.51
2022-09-23T19:00:10.426Z,16.50
2022-09-23T19:02:38.092Z,16.50
2022-09-23T19:05:06.385Z,16.48
2022-09-23T19:07:34.006Z,16.47
2022-09-23T19:10:01.656Z,16.45
2022-09-23T19:12:29.328Z,16.45
2022-09-23T19:14:58.379Z,16.43
2022-09-23T19:17:26.055Z,16.42
2022-09-23T19:19:53.726Z,16.39
2022-09-23T19:22:21.416Z,16.39
2022-09-23T19:24:49.269Z,16.38
2022-09-23T19:27:16.939Z,16.38
2022-09-23T19:29:47.415Z,16.36
2022-09-23T19:32:16.497Z,16.36
2022-09-23T19:34:44.179Z,16.35
2022-09-23T19:37:12.172Z,16.35
2022-09-23T19:39:40.777Z,16.34
2022-09-23T19:42:08.415Z,16.34
2022-09-23T19:44:37.746Z,16.34
2022-09-23T19:47:05.859Z,16.33
2022-09-23T19:49:35.522Z,16.32
2022-09-23T19:52:03.874Z,16.31
2022-09-23T19:54:31.602Z,16.30
2022-09-23T19:56:59.371Z,16.30
2022-09-23T19:59:28.188Z,16.30
2022-09-23T20:01:55.950Z,16.30
2022-09-23T20:04:23.705Z,16.30
2022-09-23T20:06:52.913Z,16.29
2022-09-23T20:09:20.750Z,16.28
2022-09-23T20:11:48.433Z,16.28
2022-09-23T20:14:17.202Z,16.27
2022-09-23T20:16:45.553Z,16.26
2022-09-23T20:19:13.466Z,16.27
2022-09-23T20:21:41.121Z,16.27
2022-09-23T20:24:12.017Z,16.28
2022-09-23T20:26:57.061Z,16.27
2022-09-23T20:29:24.750Z,16.25
2022-09-23T20:31:52.444Z,16.24
2022-09-23T20:34:21.166Z,16.25
2022-09-23T20:36:48.918Z,16.24
2022-09-23T20:39:18.009Z,16.22
2022-09-23T20:41:45.976Z,16.21
2022-09-23T20:44:13.878Z,16.21
2022-09-23T20:46:47.500Z,16.20
2022-09-23T20:49:16.318Z,16.17
2022-09-23T20:51:45.336Z,16.20
2022-09-23T20:54:13.159Z,16.18
2022-09-23T20:56:42.187Z,16.18
2022-09-23T20:59:10.485Z,16.11
2022-09-23T21:01:38.327Z,16.18
2022-09-23T21:04:07.836Z,16.18
2022-09-23T21:06:36.555Z,16.17
2022-09-23T21:09:04.478Z,16.14
2022-09-23T21:11:32.284Z,16.11
2022-09-23T21:14:02.149Z,16.11
2022-09-23T21:16:30.532Z,16.09
2022-09-23T21:18:59.280Z,16.07
2022-09-23T21:21:27.249Z,16.06
2022-09-23T21:23:58.208Z,16.06
2022-09-23T21:26:32.094Z,16.07
2022-09-23T21:29:02.223Z,16.04
2022-09-23T21:31:33.725Z,16.04
2022-09-23T21:34:03.245Z,16.03
2022-09-23T21:36:32.742Z,16.04
2022-09-23T21:39:01.653Z,16.03
2022-09-23T21:41:29.501Z,16.04
2022-09-23T21:43:57.732Z,16.06
2022-09-23T21:46:28.232Z,16.05
2022-09-23T21:48:57.499Z,16.04
2022-09-23T21:51:26.709Z,16.04
2022-09-23T21:53:55.307Z,16.04
2022-09-23T21:56:25.015Z,15.98
2022-09-23T21:58:54.341Z,15.97
2022-09-23T22:01:23.270Z,16.03
2022-09-23T22:03:53.767Z,16.03
2022-09-23T22:06:22.740Z,16.02
2022-09-23T22:08:52.772Z,16.02
2022-09-23T22:11:39.432Z,15.98
2022-09-23T22:14:08.488Z,16.01
2022-09-23T22:16:36.893Z,16.01
2022-09-23T22:19:07.423Z,16.00
2022-09-23T22:21:36.539Z,15.98
2022-09-23T22:24:05.540Z,15.97
2022-09-23T22:26:34.773Z,15.94
2022-09-23T22:29:20.448Z,15.97
2022-09-23T22:32:05.852Z,15.96
2022-09-23T22:34:51.923Z,15.96
2022-09-23T22:37:21.712Z,15.95
2022-09-23T22:39:49.604Z,15.96
2022-09-23T22:42:17.253Z,15.96
2022-09-23T22:44:45.908Z,15.96
2022-09-23T22:47:13.630Z,15.96
2022-09-23T22:49:42.927Z,15.96
2022-09-23T22:52:12.386Z,15.94
2022-09-23T22:54:40.090Z,15.93
2022-09-23T22:57:08.230Z,15.92
2022-09-23T22:59:37.196Z,15.89
2022-09-23T23:02:06.628Z,15.89
2022-09-23T23:04:34.389Z,15.90
2022-09-23T23:07:03.420Z,15.91
2022-09-23T23:09:31.168Z,15.91
2022-09-23T23:11:58.817Z,15.93
2022-09-23T23:14:27.841Z,15.93
2022-09-23T23:16:55.501Z,15.92
2022-09-23T23:19:23.595Z,15.91
2022-09-23T23:21:51.675Z,15.92
2022-09-23T23:24:22.292Z,15.92
2022-09-23T23:26:50.571Z,15.91
2022-09-23T23:29:20.816Z,15.92
2022-09-23T23:31:49.245Z,15.91
2022-09-23T23:34:18.727Z,15.90
2022-09-23T23:36:47.115Z,15.89
2022-09-23T23:39:15.414Z,15.89
2022-09-23T23:41:44.678Z,15.87
2022-09-23T23:44:13.353Z,15.86
2022-09-23T23:46:41.142Z,15.86
2022-09-23T23:49:08.985Z,15.86
2022-09-23T23:51:36.837Z,15.86
2022-09-23T23:54:04.776Z,15.87
2022-09-23T23:56:32.693Z,15.87
2022-09-23T23:59:03.364Z,15.87
